createdAt,value
2022-10-13T03:09:59.317Z,101912.09
2022-10-13T03:52:23.055Z,101879.84
2022-10-13T05:55:17.693Z,101854.25
2022-10-13T05:57:49.049Z,101849.34
2022-10-13T06:00:18.574Z,101849.91
2022-10-13T06:03:46.026Z,101846.25
2022-10-13T06:06:12.497Z,101844.78
2022-10-13T06:08:39.071Z,101843.56
2022-10-13T06:11:05.932Z,101842.50
2022-10-13T06:13:33.734Z,101837.38
2022-10-13T06:16:00.181Z,101821.31
2022-10-13T06:18:26.921Z,101820.63
2022-10-13T06:20:53.365Z,101814.56
2022-10-13T06:23:19.846Z,101803.19
2022-10-13T06:26:24.145Z,101809.28
2022-10-13T06:36:45.390Z,101805.75
2022-10-13T06:47:57.044Z,101829.06
2022-10-13T06:55:53.958Z,101838.31
2022-10-13T07:04:27.956Z,101847.06
2022-10-13T07:11:27.229Z,101829.88
2022-10-13T07:14:05.901Z,101837.16
2022-10-13T07:16:32.378Z,101832.22
2022-10-13T07:18:58.810Z,101840.28
2022-10-13T07:21:26.010Z,101838.00
2022-10-13T07:23:52.521Z,101837.31
2022-10-13T07:26:19.015Z,101828.47
2022-10-13T07:28:45.459Z,101825.75
2022-10-13T07:31:15.464Z,101827.72
2022-10-13T07:33:43.482Z,101827.59
2022-10-13T07:36:11.079Z,101825.91
2022-10-13T07:38:37.732Z,101825.81
2022-10-13T07:41:05.887Z,101830.19
2022-10-13T07:43:32.813Z,101832.16
2022-10-13T07:46:01.043Z,101832.28
2022-10-13T07:48:28.136Z,101832.97
2022-10-13T07:50:54.566Z,101827.81
2022-10-13T07:53:21.028Z,101831.34
2022-10-13T07:55:47.520Z,101832.72
2022-10-13T07:58:14.148Z,101830.19
2022-10-13T08:00:40.616Z,101838.47
2022-10-13T08:03:07.451Z,101835.38
2022-10-13T08:05:34.085Z,101833.06
2022-10-13T08:08:00.485Z,101833.41
2022-10-13T08:10:29.216Z,101830.09
2022-10-13T08:12:55.643Z,101828.91
2022-10-13T08:15:22.226Z,101816.00
2022-10-13T08:17:48.654Z,101821.91
2022-10-13T08:20:15.177Z,101818.88
2022-10-13T08:22:41.596Z,101815.81
2022-10-13T08:25:08.512Z,101812.00
2022-10-13T08:27:50.053Z,101813.00
2022-10-13T08:30:17.776Z,101816.50
2022-10-13T08:32:44.325Z,101816.66
2022-10-13T08:35:10.895Z,101819.31
2022-10-13T08:37:37.316Z,101818.75
2022-10-13T08:40:04.202Z,101816.03
2022-10-13T08:42:30.658Z,101822.38
2022-10-13T08:47:56.901Z,101822.69
2022-10-13T08:50:27.038Z,101825.66
2022-10-13T08:53:25.753Z,101825.34
2022-10-13T08:55:57.846Z,101818.03
2022-10-13T08:58:28.671Z,101817.94
2022-10-13T09:01:11.780Z,101811.31
2022-10-13T09:04:08.219Z,101801.06
2022-10-13T09:06:41.231Z,101810.63
2022-10-13T09:09:11.418Z,101818.44
2022-10-13T09:11:41.106Z,101799.28
2022-10-13T09:14:28.413Z,101807.72
2022-10-13T09:16:57.433Z,101807.19
2022-10-13T09:19:36.139Z,101809.25
2022-10-13T09:22:20.450Z,101809.91
2022-10-13T09:24:47.372Z,101809.84
2022-10-13T09:27:16.350Z,101809.03
2022-10-13T09:29:44.787Z,101798.97
2022-10-13T09:32:20.787Z,101803.72
2022-10-13T09:34:48.320Z,101802.59
2022-10-13T09:37:34.720Z,101796.97
2022-10-13T09:40:13.682Z,101795.13
2022-10-13T09:42:40.811Z,101799.69
2022-10-13T09:45:23.309Z,101794.06
2022-10-13T09:48:06.367Z,101801.50
2022-10-13T09:50:35.221Z,101802.53
2022-10-13T09:53:26.585Z,101800.34
2022-10-13T09:56:23.364Z,101802.69
2022-10-13T09:59:31.162Z,101804.50
2022-10-13T10:02:00.993Z,101793.38
2022-10-13T10:04:37.710Z,101788.41
2022-10-13T10:07:20.611Z,101794.59
2022-10-13T10:09:54.803Z,101791.25
2022-10-13T10:12:28.018Z,101796.72
2022-10-13T10:14:54.734Z,101785.34
2022-10-13T10:17:27.299Z,101786.94
2022-10-13T10:20:10.062Z,101785.38
2022-10-13T10:23:20.163Z,101777.50
2022-10-13T10:25:51.135Z,101780.47
2022-10-13T10:28:20.707Z,101786.69
2022-10-13T10:30:54.702Z,101787.78
2022-10-13T10:33:34.310Z,101775.03
2022-10-13T10:36:18.913Z,101777.19
2022-10-13T10:38:52.823Z,101776.75
2022-10-13T10:41:46.975Z,101773.63
2022-10-13T10:44:22.299Z,101767.81
2022-10-13T10:46:50.167Z,101768.34
2022-10-13T10:49:33.452Z,101769.19
2022-10-13T10:56:35.570Z,101770.56
2022-10-13T10:59:20.370Z,101772.47
2022-10-13T11:02:09.556Z,101765.31
2022-10-13T11:04:48.377Z,101765.31
2022-10-13T11:07:23.968Z,101759.97
2022-10-13T11:09:54.059Z,101755.16
2022-10-13T11:12:20.994Z,101762.59
2022-10-13T11:15:08.761Z,101759.41
2022-10-13T11:17:37.950Z,101754.31
2022-10-13T11:23:49.238Z,101752.53
2022-10-13T11:26:31.164Z,101749.84
2022-10-13T11:28:58.158Z,101759.41
2022-10-13T11:31:35.139Z,101758.28
2022-10-13T11:34:02.857Z,101748.88
2022-10-13T11:36:46.026Z,101752.59
2022-10-13T11:39:21.722Z,101746.19
2022-10-13T11:46:01.063Z,101731.44
2022-10-13T11:48:59.946Z,101735.06
2022-10-13T11:51:31.769Z,101736.81
2022-10-13T11:57:27.466Z,101732.47
2022-10-13T11:59:56.817Z,101730.28
2022-10-13T12:02:25.782Z,101729.38
2022-10-13T12:05:24.617Z,101727.44
2022-10-13T12:07:53.758Z,101726.63
2022-10-13T12:10:29.930Z,101724.31
2022-10-13T12:12:56.584Z,101722.50
2022-10-13T12:15:44.067Z,101719.91
2022-10-13T12:18:22.202Z,101720.47
2022-10-13T12:20:54.142Z,101720.19
2022-10-13T12:23:20.616Z,101722.34
2022-10-13T12:25:48.974Z,101717.78
2022-10-13T12:28:20.118Z,101718.28
2022-10-13T12:30:55.496Z,101717.16
2022-10-13T12:36:45.353Z,101713.56
2022-10-13T12:39:16.463Z,101704.88
2022-10-13T12:41:45.112Z,101705.16
2022-10-13T12:44:15.901Z,101701.88
2022-10-13T12:46:45.593Z,101700.72
2022-10-13T12:49:30.067Z,101698.91
2022-10-13T12:52:04.869Z,101699.19
2022-10-13T12:54:34.400Z,101702.72
2022-10-13T12:57:06.225Z,101703.53
2022-10-13T12:59:34.552Z,101707.47
2022-10-13T13:02:03.746Z,101706.63
2022-10-13T13:04:42.642Z,101707.06
2022-10-13T13:07:27.987Z,101713.34
2022-10-13T13:10:09.715Z,101710.53
2022-10-13T13:12:37.281Z,101707.19
2022-10-13T13:15:25.600Z,101698.63
2022-10-13T13:17:59.171Z,101705.84
2022-10-13T13:20:29.383Z,101710.41
2022-10-13T13:22:56.044Z,101709.06
2022-10-13T13:25:23.322Z,101698.94
2022-10-13T13:27:50.448Z,101705.28
2022-10-13T13:30:20.045Z,101703.38
2022-10-13T13:32:46.755Z,101696.53
2022-10-13T13:35:13.324Z,101698.50
2022-10-13T13:37:44.428Z,101695.59
2022-10-13T13:40:17.130Z,101696.13
2022-10-13T13:43:01.583Z,101692.47
2022-10-13T13:45:28.070Z,101688.06
2022-10-13T13:47:59.555Z,101683.38
2022-10-13T13:50:33.100Z,101675.81
2022-10-13T13:53:02.122Z,101675.41
2022-10-13T13:59:49.054Z,101683.91
2022-10-13T14:06:22.983Z,101671.44
2022-10-13T14:08:50.214Z,101670.59
2022-10-13T14:11:17.095Z,101670.03
2022-10-13T14:17:34.501Z,101655.66
2022-10-13T14:20:00.946Z,101651.97
2022-10-13T14:22:27.666Z,101649.34
2022-10-13T14:28:45.079Z,101657.28
2022-10-13T14:31:11.973Z,101648.19
2022-10-13T14:33:38.626Z,101647.09
2022-10-13T14:36:07.049Z,101643.34
2022-10-13T14:38:34.622Z,101640.66
2022-10-13T14:41:02.476Z,101629.72
2022-10-13T14:43:29.555Z,101632.38
2022-10-13T14:45:56.348Z,101627.03
2022-10-13T14:48:24.922Z,101633.09
2022-10-13T14:50:51.450Z,101625.69
2022-10-13T14:53:18.193Z,101625.72
2022-10-13T14:55:45.267Z,101628.91
2022-10-13T14:58:12.641Z,101628.88
2022-10-13T15:00:39.150Z,101628.56
2022-10-13T15:07:02.207Z,101639.81
2022-10-13T15:13:28.976Z,101627.78
2022-10-13T15:16:19.092Z,101619.50
2022-10-13T15:18:46.010Z,101623.44
2022-10-13T15:28:01.184Z,101622.31
2022-10-13T15:42:15.210Z,101619.75
2022-10-13T15:48:37.329Z,101608.59
2022-10-13T15:55:40.220Z,101609.41
2022-10-13T16:12:19.396Z,101615.78
2022-10-13T16:18:39.254Z,101601.84
2022-10-13T16:25:13.381Z,101590.09
2022-10-13T16:31:26.206Z,101586.28
2022-10-13T16:37:56.228Z,101592.81
2022-10-13T16:44:14.278Z,101598.31
2022-10-13T16:50:40.339Z,101601.97
2022-10-13T16:56:47.260Z,101615.97
2022-10-13T16:59:14.025Z,101616.22
2022-10-13T17:01:48.860Z,101605.84
2022-10-13T17:08:19.122Z,101612.44
2022-10-13T17:14:38.229Z,101622.50
2022-10-13T17:33:30.974Z,101638.84
2022-10-13T17:55:40.412Z,101648.72
2022-10-13T17:58:06.902Z,101645.53
2022-10-13T18:00:54.096Z,101662.25
2022-10-13T18:03:48.986Z,101659.84
2022-10-13T18:06:16.497Z,101660.91
2022-10-13T18:08:43.247Z,101656.56
2022-10-13T18:19:00.282Z,101676.94
2022-10-13T18:21:27.120Z,101687.84
2022-10-13T18:23:58.877Z,101686.72
2022-10-13T18:26:26.978Z,101681.91
2022-10-13T18:28:54.322Z,101684.56
2022-10-13T18:31:23.225Z,101686.72
2022-10-13T18:33:50.192Z,101693.06
2022-10-13T18:36:38.201Z,101694.69
2022-10-13T18:39:07.841Z,101705.28
2022-10-13T18:45:29.231Z,101709.91
2022-10-13T18:47:56.718Z,101710.38
2022-10-13T18:50:23.153Z,101717.78
2022-10-13T18:52:49.665Z,101725.38
2022-10-13T18:55:16.085Z,101728.28
2022-10-13T18:57:42.556Z,101730.34
2022-10-13T19:00:12.644Z,101728.97
2022-10-13T19:06:32.219Z,101730.75
2022-10-13T19:09:48.970Z,101726.75
2022-10-13T19:16:07.050Z,101735.88
2022-10-13T19:18:46.320Z,101727.59
2022-10-13T19:21:13.113Z,101729.59
2022-10-13T19:23:40.358Z,101730.88
2022-10-13T19:26:15.063Z,101724.69
2022-10-13T19:28:48.059Z,101724.91
2022-10-13T19:34:59.186Z,101721.38
2022-10-13T19:37:25.770Z,101727.28
2022-10-13T19:39:52.292Z,101722.69
2022-10-13T19:42:18.745Z,101723.81
2022-10-13T19:44:45.272Z,101719.47
2022-10-13T19:47:11.712Z,101725.09
2022-10-13T19:49:38.234Z,101733.16
2022-10-13T19:52:04.992Z,101730.81
2022-10-13T19:54:34.829Z,101740.94
2022-10-13T19:57:01.444Z,101727.47
2022-10-13T19:59:28.233Z,101721.47
2022-10-13T20:01:55.894Z,101727.91
2022-10-13T20:04:22.534Z,101735.13
2022-10-13T20:06:50.496Z,101738.09
2022-10-13T20:09:18.789Z,101737.03
2022-10-13T20:11:47.259Z,101737.16
2022-10-13T20:14:14.643Z,101742.50
2022-10-13T20:16:41.850Z,101735.72
2022-10-13T20:19:11.371Z,101744.75
2022-10-13T20:21:39.449Z,101746.91
2022-10-13T20:24:07.372Z,101749.63
2022-10-13T20:26:33.898Z,101755.56
2022-10-13T20:29:00.521Z,101750.34
2022-10-13T20:31:27.193Z,101757.53
2022-10-13T20:33:58.458Z,101756.38
2022-10-13T20:36:26.938Z,101750.97
2022-10-13T20:38:54.369Z,101757.94
2022-10-13T20:41:29.727Z,101762.47
2022-10-13T20:43:58.166Z,101753.19
2022-10-13T20:46:25.654Z,101762.56
2022-10-13T20:51:41.674Z,101764.75
2022-10-13T20:54:09.419Z,101760.72
2022-10-13T20:56:36.479Z,101757.94
2022-10-13T20:59:21.262Z,101764.06
2022-10-13T21:01:47.723Z,101773.00
2022-10-13T21:04:14.139Z,101768.53
2022-10-13T21:06:41.287Z,101776.59
2022-10-13T21:09:08.337Z,101778.59
2022-10-13T21:11:35.819Z,101782.56
2022-10-13T21:14:06.680Z,101776.81
2022-10-13T21:16:34.622Z,101786.94
2022-10-13T21:19:01.670Z,101790.53
2022-10-13T21:21:42.399Z,101786.66
2022-10-13T21:24:15.017Z,101784.63
2022-10-13T21:26:41.844Z,101785.25
2022-10-13T21:29:08.292Z,101779.97
2022-10-13T21:32:26.990Z,101782.59
2022-10-13T21:34:54.070Z,101777.16
2022-10-13T21:37:20.691Z,101778.16
2022-10-13T21:39:48.313Z,101769.00
2022-10-13T21:43:01.225Z,101765.34
2022-10-13T21:45:27.613Z,101758.88
2022-10-13T21:47:54.317Z,101760.47
2022-10-13T21:50:20.759Z,101762.69
2022-10-13T21:52:47.215Z,101756.38
2022-10-13T21:55:14.197Z,101759.25
2022-10-13T21:57:40.647Z,101755.00
2022-10-13T22:00:08.781Z,101756.38
2022-10-13T22:02:35.298Z,101762.69
2022-10-13T22:05:01.761Z,101759.25
2022-10-13T22:07:28.663Z,101754.78
2022-10-13T22:09:55.731Z,101751.47
2022-10-13T22:12:22.209Z,101750.88
2022-10-13T22:14:48.701Z,101742.75
2022-10-13T22:17:15.286Z,101743.56
2022-10-13T22:19:41.814Z,101742.53
2022-10-13T22:22:08.317Z,101744.38
2022-10-13T22:24:34.785Z,101737.25
2022-10-13T22:27:01.194Z,101733.81
2022-10-13T22:29:27.611Z,101734.63
2022-10-13T22:31:58.030Z,101715.94
2022-10-13T22:34:24.864Z,101726.50
2022-10-13T22:36:51.486Z,101727.09
2022-10-13T22:39:18.264Z,101727.28
2022-10-13T22:41:44.914Z,101725.25
2022-10-13T22:44:11.902Z,101724.44
2022-10-13T22:46:39.095Z,101731.56
2022-10-13T22:49:06.757Z,101732.34
2022-10-13T22:51:35.522Z,101729.72
2022-10-13T22:54:02.273Z,101723.63
2022-10-13T22:56:31.768Z,101722.84
2022-10-13T22:59:01.272Z,101723.06
2022-10-13T23:01:28.287Z,101723.84
2022-10-13T23:03:57.045Z,101725.91
2022-10-13T23:06:27.223Z,101719.22
2022-10-13T23:08:54.296Z,101711.97
2022-10-13T23:11:20.866Z,101714.63
2022-10-13T23:13:47.578Z,101711.41
2022-10-13T23:16:16.911Z,101716.44
2022-10-13T23:18:43.687Z,101711.41
2022-10-13T23:21:16.057Z,101701.88
2022-10-13T23:23:43.060Z,101706.34
2022-10-13T23:26:12.967Z,101699.63
2022-10-13T23:28:40.895Z,101699.47
2022-10-13T23:31:12.281Z,101700.50
2022-10-13T23:33:39.038Z,101697.72
2022-10-13T23:36:06.861Z,101699.00
2022-10-13T23:38:33.917Z,101698.19
2022-10-13T23:41:09.866Z,101700.34
2022-10-13T23:43:36.434Z,101698.31
2022-10-13T23:46:03.275Z,101701.41
2022-10-13T23:48:29.935Z,101689.25
2022-10-13T23:50:57.211Z,101686.63
2022-10-13T23:53:24.037Z,101704.59
2022-10-13T23:55:50.493Z,101700.94
2022-10-13T23:58:17.104Z,101703.81
